WEATHER DATA

YESTERDAY
Time Temp. Dewp. Hum. Bar.
00:01 11.4 6.5 72 1010.8
00:11 11.1 6.4 73 1010.7
00:21 11 6.7 75 1010.8
00:31 11 6.7 75 1010.7
00:42 11 6.9 76 1010.8
01:01 11.1 7.2 77 1010.7
01:12 11 7.3 78 1010.7
01:22 10.8 7.1 78 1010.9
01:32 10.6 7.1 79 1010.7
01:42 10.3 7 80 1010.8
01:52 10.1 7 81 1010.9
02:02 9.9 7.2 83 1010.9
02:12 10.2 7.6 84 1010.9
02:22 10.5 7.7 83 1010.8
02:33 10.7 7.8 82 1010.9
02:43 10.9 7.8 81 1010.9
02:52 10.9 7.6 80 1010.9
03:03 10.9 7.6 80 1011
03:13 10.9 7.6 80 1011
03:23 10.9 7.4 79 1011
03:33 10.9 7.4 79 1011.1
03:44 10.9 7.4 79 1011.2
03:54 10.8 7.3 79 1011.1
04:03 10.8 7.3 79 1011.2
04:14 10.7 7.2 79 1011.3
04:24 10.6 7.1 79 1011.4
04:34 10.5 7 79 1011.6
04:44 10.5 7 79 1011.6
04:55 10.4 6.9 79 1011.8
05:04 10.4 6.9 79 1011.9
05:14 10.3 6.8 79 1011.9
05:24 10.2 6.7 79 1012
05:35 10.1 6.6 79 1012.1
05:45 10.1 6.8 80 1012.1
05:55 10 6.7 80 1012.1
06:05 10.1 6.8 80 1012.2
06:15 10.2 6.9 80 1012.3
06:25 10.5 7.2 80 1012.4
06:35 10.6 7.3 80 1012.5
06:46 10.7 7.4 80 1012.4
06:56 11 7.7 80 1012.4
07:06 11.3 7.8 79 1012.5
07:16 11.6 7.9 78 1012.5
07:26 12 7.9 76 1012.4
07:36 12.2 8.1 76 1012.5
07:46 12.6 8.3 75 1012.5
07:57 13.6 8.7 72 1012.4
08:07 14.3 8.9 70 1012.3
08:16 14.6 8.8 68 1012.3
08:26 14.9 9.1 68 1012.4
08:37 15.1 9.2 68 1012.5
08:47 15.3 9.2 67 1012.6
08:57 15.3 9.2 67 1012.3
09:07 15.3 9 66 1012.4
09:17 15.5 9.2 66 1012.6
09:27 15.7 9.6 67 1012.6
09:37 16 9.4 65 1012.9
09:47 16.3 9.7 65 1012.9
09:57 16.7 9.9 64 1013
10:07 17.1 10 63 1013
10:17 17.4 10.1 62 1012.9
10:27 17.7 10.3 62 1012.7
10:37 18.1 10.2 60 1012.7
10:47 18.4 10.3 59 1012.8
10:58 18.6 10.4 59 1012.9
11:08 19 10.6 58 1012.9
11:17 19.2 10.2 56 1012.8
11:28 19.4 10.1 55 1012.6
11:38 19.7 10.4 55 1012.5
11:48 20 10.7 55 1012.4
11:57 20 10.4 54 1012.4
12:08 20 10.4 54 1012.4
12:18 19.9 10 53 1012.4
12:28 19.7 9.9 53 1012.4
12:38 19.8 10 53 1012.5
12:48 19.9 9.5 51 1012.2
12:58 20.1 9.9 52 1012.3
13:08 20.7 9.9 50 1012.2
13:18 21.1 9.7 48 1012.2
13:28 21.3 9.5 47 1012.3
13:38 21.3 9.9 48 1012.1
13:49 21.1 9.4 47 1012.1
13:58 21 9.6 48 1012.1
14:08 21.3 10.2 49 1012.2
14:18 21.8 10 47 1012.1
14:28 22.1 10.3 47 1012.1
14:38 21.9 10.4 48 1012.1
14:48 21.4 10.6 50 1012.1
14:59 21 10.2 50 1012.2
15:08 20.6 9.5 49 1012.2
15:18 20.4 9 48 1012
15:28 20.3 9.8 51 1012
15:39 20.4 9.9 51 1011.9
15:48 20.3 9.8 51 1011.9
15:58 20.4 9.9 51 1011.9
16:09 20.4 9.9 51 1011.8
16:19 20.4 10.2 52 1011.9
16:28 20.4 10.5 53 1011.7
16:39 20.4 10.5 53 1011.7
16:49 20.4 10.2 52 1011.7
16:58 20.4 10.2 52 1011.7
17:08 20.3 10.1 52 1011.8
17:19 20.2 10.3 53 1011.7
17:29 19.8 10.2 54 1011.8
17:38 19.6 10 54 1011.8
17:49 19.4 10.1 55 1011.6
17:59 19.2 10 55 1011.7
18:09 19.1 9.9 55 1011.7
18:18 19.1 10.1 56 1011.7
18:29 19.1 10.1 56 1011.6
18:39 19.3 10 55 1011.7
18:48 19.3 10 55 1011.8
18:59 19.2 10 55 1011.8
19:09 19.1 10.4 57 1011.8
19:19 19.2 10.5 57 1011.8
19:29 19.2 10.5 57 1011.8
19:39 19.1 10.4 57 1011.7
19:49 18.8 10.1 57 1011.8
19:59 18.4 10 58 1011.9
20:09 18.1 9.7 58 1012.1
20:19 17.8 9.7 59 1012
20:29 17.5 9.7 60 1012.1
20:39 17.2 9.6 61 1012.1
20:49 16.9 9.6 62 1012.2
20:59 16.7 9.6 63 1012.2
21:09 16.5 9.7 64 1012.4
21:20 16.3 9.7 65 1012.6
21:30 16.2 9.8 66 1012.6
21:39 16.1 9.8 66 1012.8
21:50 16.2 10.9 71 1013.1
22:00 15.9 11.3 74 1012.9
22:10 15.6 11.4 76 1013
22:20 15.3 11.3 77 1013.1
22:30 15.2 11.2 77 1013.2
22:40 15.1 11.3 78 1013.3
22:50 15.1 11.3 78 1013.3
23:00 15 11.2 78 1013.4
23:20 14.8 11.2 79 1013.5
23:30 14.6 11 79 1013.5
23:41 14.4 11 80 1013.5
23:51 14.2 10.8 80 1013.5

DAY STATISTIC

2019-05-24
TEMPERATURE
AVERAGE
15.9
HIGH
22.1
14:28
LOW
9.9
02:02
PRESSURE
AVERAGE
1012.1
HIGH
1013.5
23:20
LOW
1010.7
00:11
DEWPOINT
AVERAGE
9.1
HIGH
11.4
22:10
LOW
6.4
00:11
HUMIDITY
AVERAGE
66
HIGH
84
02:12
LOW
47
13:28
TEMPERATURE (°C)
LOW
9.9
HIGH
22.1
AVERAGE
15.9
PRESSURE (hpa)
LOW
1010.7
HIGH
1013.5
AVERAGE
1012.1
DEVICE